Time;durP1;ratioP1;P1;durP2;ratioP2;P2;SDS_P1;SDS_P2;PMS_P1;PMS_P2;Temp;Humidity;BMP_temperature;BMP_pressure;BME280_temperature;BME280_humidity;BME280_pressure;Samples;Min_cycle;Max_cycle;Signal;HPM_P1;HPM_P2
2022/03/22 00:00:29;;;;;;;24.93;16.13;;;;;;;;;;5025733;28;20424;-36
2022/03/22 00:02:56;;;;;;;27.83;16.17;;;;;;;;;;5028008;28;20425;-37
2022/03/22 00:05:22;;;;;;;26.60;16.57;;;;;;;;;;5025559;28;20414;-36
2022/03/22 00:07:48;;;;;;;25.50;17.20;;;;;;;;;;5027394;28;20425;-37
2022/03/22 00:10:15;;;;;;;28.80;16.93;;;;;;;;;;5029976;28;20417;-37
2022/03/22 00:12:41;;;;;;;26.63;16.43;;;;;;;;;;5009171;28;20974;-37
2022/03/22 00:15:08;;;;;;;30.77;16.60;;;;;;;;;;5023248;28;20422;-37
2022/03/22 00:17:35;;;;;;;24.60;15.80;;;;;;;;;;5024628;28;20886;-37
2022/03/22 00:20:01;;;;;;;27.23;16.23;;;;;;;;;;5029872;28;20779;-36
2022/03/22 00:22:27;;;;;;;25.27;16.03;;;;;;;;;;5025434;28;21205;-37
2022/03/22 00:24:54;;;;;;;26.13;16.77;;;;;;;;;;5024499;28;20870;-36
2022/03/22 00:27:20;;;;;;;28.63;16.87;;;;;;;;;;5026617;28;21311;-36
2022/03/22 00:29:46;;;;;;;26.50;16.53;;;;;;;;;;5028865;28;20929;-37
2022/03/22 00:32:12;;;;;;;24.53;16.07;;;;;;;;;;5023360;28;20826;-36
2022/03/22 00:34:44;;;;;;;26.43;16.50;;;;;;;;;;5022572;28;20760;-36
2022/03/22 00:37:17;;;;;;;30.93;16.73;;;;;;;;;;5024406;28;20910;-37
2022/03/22 00:39:44;;;;;;;26.17;15.97;;;;;;;;;;5030000;28;20608;-36
2022/03/22 00:42:11;;;;;;;28.90;16.03;;;;;;;;;;5027478;28;20449;-37
2022/03/22 00:44:38;;;;;;;29.63;16.63;;;;;;;;;;5025766;28;20731;-36
2022/03/22 00:47:06;;;;;;;26.03;15.73;;;;;;;;;;5023544;28;20422;-37
2022/03/22 00:49:33;;;;;;;24.50;15.80;;;;;;;;;;5028562;28;20499;-37
2022/03/22 00:52:01;;;;;;;26.73;15.87;;;;;;;;;;5027561;28;20432;-37
2022/03/22 00:54:27;;;;;;;28.50;15.47;;;;;;;;;;5022395;28;20554;-37
2022/03/22 00:56:54;;;;;;;25.93;16.60;;;;;;;;;;5030034;28;20434;-37
2022/03/22 01:02:05;;;;;;;24.83;16.07;;;;;;;;;;5023727;28;20425;-37
2022/03/22 01:04:31;;;;;;;25.73;15.87;;;;;;;;;;5026220;28;20465;-36
2022/03/22 01:06:57;;;;;;;23.80;15.53;;;;;;;;;;5029573;28;20452;-36
2022/03/22 01:09:23;;;;;;;27.50;15.47;;;;;;;;;;5027360;28;20449;-37
2022/03/22 01:11:49;;;;;;;26.63;16.20;;;;;;;;;;5024827;28;20768;-37
2022/03/22 01:14:15;;;;;;;26.10;15.50;;;;;;;;;;5028370;28;20426;-37
2022/03/22 01:16:41;;;;;;;23.80;15.60;;;;;;;;;;5030055;28;20601;-37
2022/03/22 01:19:07;;;;;;;23.63;15.63;;;;;;;;;;5027065;28;20603;-37
2022/03/22 01:21:34;;;;;;;22.77;15.43;;;;;;;;;;5030945;28;20425;-37
2022/03/22 01:24:03;;;;;;;29.30;15.90;;;;;;;;;;5030743;28;20452;-36
2022/03/22 01:26:29;;;;;;;27.27;16.67;;;;;;;;;;5030822;28;20449;-37
2022/03/22 01:28:55;;;;;;;25.13;15.53;;;;;;;;;;5028798;28;20920;-37
2022/03/22 01:31:22;;;;;;;26.43;15.60;;;;;;;;;;5027110;28;20982;-37
2022/03/22 01:33:48;;;;;;;25.43;15.40;;;;;;;;;;5028573;28;20914;-37
2022/03/22 01:36:14;;;;;;;28.37;15.93;;;;;;;;;;5025553;28;20422;-37
2022/03/22 01:38:40;;;;;;;26.83;16.77;;;;;;;;;;5027508;28;20844;-37
2022/03/22 01:41:07;;;;;;;25.50;16.53;;;;;;;;;;5009788;28;20429;-37
2022/03/22 01:43:33;;;;;;;27.90;17.27;;;;;;;;;;5031066;28;20414;-35
2022/03/22 01:45:59;;;;;;;31.40;17.37;;;;;;;;;;5025104;28;20772;-36
2022/03/22 01:48:26;;;;;;;30.30;17.97;;;;;;;;;;5024718;28;20921;-36
2022/03/22 01:50:52;;;;;;;28.03;18.13;;;;;;;;;;5030967;28;20798;-36
2022/03/22 01:53:18;;;;;;;30.30;18.40;;;;;;;;;;5026411;28;20509;-36
2022/03/22 01:55:45;;;;;;;32.03;18.50;;;;;;;;;;5027556;28;21444;-36
2022/03/22 01:58:13;;;;;;;32.83;19.40;;;;;;;;;;5030959;28;20449;-37
2022/03/22 02:00:40;;;;;;;36.30;19.57;;;;;;;;;;5007862;28;20421;-36
2022/03/22 02:05:54;;;;;;;28.97;18.83;;;;;;;;;;5015971;28;20499;-35
2022/03/22 02:08:24;;;;;;;34.03;19.80;;;;;;;;;;5010681;28;21051;-36
2022/03/22 02:10:50;;;;;;;29.40;19.60;;;;;;;;;;5011461;28;20764;-37
2022/03/22 02:13:18;;;;;;;34.07;20.70;;;;;;;;;;5032143;28;20422;-36
2022/03/22 02:15:46;;;;;;;33.47;19.70;;;;;;;;;;5004243;28;21091;-36
2022/03/22 02:18:13;;;;;;;34.57;20.17;;;;;;;;;;5014725;28;20870;-37
2022/03/22 02:20:39;;;;;;;32.63;20.87;;;;;;;;;;5032352;28;20834;-36
2022/03/22 02:23:06;;;;;;;38.30;21.37;;;;;;;;;;5009105;28;20434;-36
2022/03/22 02:25:35;;;;;;;35.10;21.57;;;;;;;;;;5028964;28;20425;-37
2022/03/22 02:28:03;;;;;;;34.33;21.50;;;;;;;;;;5014403;28;20427;-36
2022/03/22 02:30:29;;;;;;;36.67;22.07;;;;;;;;;;5032066;28;20433;-36
2022/03/22 02:32:59;;;;;;;36.73;21.80;;;;;;;;;;5027919;28;20500;-37
2022/03/22 02:35:25;;;;;;;33.80;21.70;;;;;;;;;;5005809;28;20519;-36
2022/03/22 02:37:52;;;;;;;36.83;21.57;;;;;;;;;;5028374;28;20485;-39
2022/03/22 02:40:19;;;;;;;37.23;22.50;;;;;;;;;;5011976;28;20464;-37
2022/03/22 02:42:49;;;;;;;39.30;22.33;;;;;;;;;;5002914;28;20421;-37
2022/03/22 02:45:16;;;;;;;33.63;22.17;;;;;;;;;;5007936;28;20437;-37
2022/03/22 02:47:43;;;;;;;38.83;23.00;;;;;;;;;;5031598;28;20914;-36
2022/03/22 02:50:09;;;;;;;35.57;22.93;;;;;;;;;;5010102;28;20426;-36
2022/03/22 02:52:36;;;;;;;35.97;21.53;;;;;;;;;;5032954;28;20650;-37
2022/03/22 02:55:04;;;;;;;36.17;22.23;;;;;;;;;;5008849;28;20429;-36
2022/03/22 02:57:30;;;;;;;35.70;21.37;;;;;;;;;;5012267;28;20504;-36
2022/03/22 02:59:56;;;;;;;40.77;22.57;;;;;;;;;;5032055;28;20425;-36
2022/03/22 03:02:22;;;;;;;39.17;22.77;;;;;;;;;;5034349;28;20522;-36
2022/03/22 03:04:49;;;;;;;38.30;24.13;;;;;;;;;;5031216;28;20544;-36
2022/03/22 03:07:15;;;;;;;39.23;23.17;;;;;;;;;;5031024;28;20628;-37
2022/03/22 03:09:41;;;;;;;33.43;21.40;;;;;;;;;;5027837;28;20449;-37
2022/03/22 03:12:08;;;;;;;39.27;24.37;;;;;;;;;;5013449;28;20842;-37
2022/03/22 03:14:38;;;;;;;43.07;24.10;;;;;;;;;;5015625;28;20447;-36
2022/03/22 03:17:05;;;;;;;37.70;22.70;;;;;;;;;;5029692;28;20434;-36
2022/03/22 03:19:31;;;;;;;39.63;22.33;;;;;;;;;;5014561;28;20846;-36
2022/03/22 03:21:58;;;;;;;36.57;23.33;;;;;;;;;;5032220;28;20810;-36
2022/03/22 03:24:25;;;;;;;42.00;23.17;;;;;;;;;;5030244;28;21159;-37
2022/03/22 03:26:52;;;;;;;37.60;22.50;;;;;;;;;;5033144;28;20418;-37
2022/03/22 03:29:18;;;;;;;39.17;22.57;;;;;;;;;;5008933;28;20942;-37
2022/03/22 03:31:44;;;;;;;37.03;22.77;;;;;;;;;;5032824;28;20410;-37
2022/03/22 03:34:11;;;;;;;37.10;22.97;;;;;;;;;;5029828;28;21236;-37
2022/03/22 03:36:37;;;;;;;38.53;22.67;;;;;;;;;;5005978;28;20440;-36
2022/03/22 03:39:04;;;;;;;38.33;22.63;;;;;;;;;;5008027;28;20457;-38
2022/03/22 03:47:03;;;;;;;34.83;22.07;;;;;;;;;;5026011;28;20492;-36
2022/03/22 03:49:30;;;;;;;41.40;21.57;;;;;;;;;;5030213;28;21325;-36
2022/03/22 03:51:57;;;;;;;36.70;20.87;;;;;;;;;;5007025;28;20437;-36
2022/03/22 03:54:23;;;;;;;36.30;21.70;;;;;;;;;;5045638;28;21052;-36
2022/03/22 03:56:50;;;;;;;36.50;21.53;;;;;;;;;;5034776;28;20438;-36
2022/03/22 03:59:16;;;;;;;36.30;21.57;;;;;;;;;;5012720;28;20445;-37
2022/03/22 04:01:44;;;;;;;35.20;22.37;;;;;;;;;;5029710;28;20974;-38
2022/03/22 04:04:10;;;;;;;37.97;23.30;;;;;;;;;;5029951;28;20957;-37
2022/03/22 04:06:36;;;;;;;35.83;22.97;;;;;;;;;;5029672;28;20430;-37
2022/03/22 04:09:03;;;;;;;37.40;22.83;;;;;;;;;;5026426;28;21063;-37
2022/03/22 04:11:29;;;;;;;34.47;21.37;;;;;;;;;;5010878;28;20437;-38
2022/03/22 04:13:55;;;;;;;37.90;23.37;;;;;;;;;;5027097;28;20832;-37
2022/03/22 04:16:22;;;;;;;38.93;24.33;;;;;;;;;;5028131;28;20426;-37
2022/03/22 04:18:50;;;;;;;35.23;23.13;;;;;;;;;;5031713;28;20560;-37
2022/03/22 04:21:16;;;;;;;38.60;23.17;;;;;;;;;;5031299;28;21142;-37
2022/03/22 04:23:42;;;;;;;34.37;21.73;;;;;;;;;;5029193;28;20809;-37
2022/03/22 04:26:09;;;;;;;36.17;23.07;;;;;;;;;;5025745;28;20577;-35
2022/03/22 04:34:05;;;;;;;34.30;22.73;;;;;;;;;;5030770;28;20990;-37
2022/03/22 04:36:32;;;;;;;34.00;21.80;;;;;;;;;;5009445;28;20487;-37
2022/03/22 04:38:59;;;;;;;34.37;21.27;;;;;;;;;;5028034;28;20674;-38
2022/03/22 04:41:25;;;;;;;35.47;21.27;;;;;;;;;;5025665;28;20978;-37
2022/03/22 04:43:51;;;;;;;40.50;22.33;;;;;;;;;;5024679;28;20432;-36
2022/03/22 04:46:21;;;;;;;37.87;22.30;;;;;;;;;;5022752;28;20929;-37
2022/03/22 04:48:48;;;;;;;37.90;22.43;;;;;;;;;;5013404;28;20452;-37
2022/03/22 04:56:48;;;;;;;37.83;23.63;;;;;;;;;;5031086;28;20818;-37
2022/03/22 04:59:16;;;;;;;39.00;22.83;;;;;;;;;;5036636;28;20456;-37
2022/03/22 05:01:42;;;;;;;34.83;20.77;;;;;;;;;;5032604;28;20425;-37
2022/03/22 05:04:10;;;;;;;40.37;22.10;;;;;;;;;;5033727;28;20461;-37
2022/03/22 05:06:37;;;;;;;35.33;22.10;;;;;;;;;;5033850;28;20441;-37
2022/03/22 05:09:07;;;;;;;39.93;22.20;;;;;;;;;;5012727;28;20516;-36
2022/03/22 05:11:34;;;;;;;35.70;21.50;;;;;;;;;;5014528;28;20762;-37
2022/03/22 05:14:01;;;;;;;40.40;22.53;;;;;;;;;;5028482;28;20924;-38
2022/03/22 05:16:29;;;;;;;40.77;21.63;;;;;;;;;;5028609;28;20428;-37
2022/03/22 05:18:57;;;;;;;37.37;21.70;;;;;;;;;;5027539;28;20457;-37
2022/03/22 05:21:24;;;;;;;38.13;22.57;;;;;;;;;;5029619;28;20424;-37
2022/03/22 05:23:51;;;;;;;38.83;22.30;;;;;;;;;;5042703;28;20429;-37
2022/03/22 05:26:18;;;;;;;40.43;23.33;;;;;;;;;;5013066;28;20593;-36
2022/03/22 05:28:45;;;;;;;36.63;22.03;;;;;;;;;;5016462;28;20429;-38
2022/03/22 05:31:13;;;;;;;44.43;24.30;;;;;;;;;;5031387;28;21451;-37
2022/03/22 05:33:40;;;;;;;39.17;23.00;;;;;;;;;;5013594;28;20465;-37
2022/03/22 05:36:07;;;;;;;41.53;23.30;;;;;;;;;;5013343;28;20430;-37
2022/03/22 05:38:33;;;;;;;44.30;25.13;;;;;;;;;;5036297;28;20445;-38
2022/03/22 05:41:03;;;;;;;47.60;24.77;;;;;;;;;;5011139;28;20695;-38
2022/03/22 05:43:30;;;;;;;39.47;23.33;;;;;;;;;;5008527;28;20429;-37
2022/03/22 05:45:57;;;;;;;51.53;25.23;;;;;;;;;;5008582;28;20422;-38
2022/03/22 05:48:23;;;;;;;45.40;25.60;;;;;;;;;;5031365;28;20417;-37
2022/03/22 05:50:50;;;;;;;42.50;23.90;;;;;;;;;;5012710;28;20522;-37
2022/03/22 05:53:16;;;;;;;45.43;24.53;;;;;;;;;;5033382;28;20417;-37
2022/03/22 05:55:43;;;;;;;39.10;23.83;;;;;;;;;;5031090;28;20799;-37
2022/03/22 05:58:11;;;;;;;41.90;23.83;;;;;;;;;;5033692;28;21053;-37
2022/03/22 06:00:37;;;;;;;51.13;25.17;;;;;;;;;;5018090;28;20420;-37
2022/03/22 06:03:03;;;;;;;41.90;23.87;;;;;;;;;;5031769;28;20903;-39
2022/03/22 06:05:30;;;;;;;39.80;23.57;;;;;;;;;;5009992;28;20430;-38
2022/03/22 06:07:57;;;;;;;39.67;23.40;;;;;;;;;;5009016;28;20428;-38
2022/03/22 06:10:23;;;;;;;39.60;23.13;;;;;;;;;;5004372;28;20852;-38
2022/03/22 06:12:51;;;;;;;35.60;22.47;;;;;;;;;;5010179;28;20422;-38
2022/03/22 06:15:19;;;;;;;36.33;21.87;;;;;;;;;;5032125;28;20601;-37
2022/03/22 06:17:46;;;;;;;40.47;22.73;;;;;;;;;;5008260;28;20470;-38
2022/03/22 06:20:12;;;;;;;46.27;25.13;;;;;;;;;;5026876;28;20422;-38
2022/03/22 06:22:38;;;;;;;39.80;23.43;;;;;;;;;;5014364;28;20797;-37
2022/03/22 06:25:05;;;;;;;40.30;22.37;;;;;;;;;;5030797;28;21037;-39
2022/03/22 06:27:35;;;;;;;42.10;22.60;;;;;;;;;;5029383;28;20433;-38
2022/03/22 06:30:03;;;;;;;45.33;21.17;;;;;;;;;;4999866;28;20545;-38
2022/03/22 06:32:29;;;;;;;36.10;21.13;;;;;;;;;;5014002;28;20638;-38
2022/03/22 06:34:55;;;;;;;37.97;20.63;;;;;;;;;;5012370;28;21044;-38
2022/03/22 06:37:22;;;;;;;36.53;22.10;;;;;;;;;;5001603;28;20847;-38
2022/03/22 06:39:48;;;;;;;38.43;21.10;;;;;;;;;;5009381;28;20966;-38
2022/03/22 06:42:14;;;;;;;39.10;21.30;;;;;;;;;;5030347;28;20923;-38
2022/03/22 06:44:41;;;;;;;36.83;20.70;;;;;;;;;;5028228;28;20756;-38
2022/03/22 06:47:07;;;;;;;34.70;20.33;;;;;;;;;;5011338;28;20932;-39
2022/03/22 06:49:33;;;;;;;35.10;20.63;;;;;;;;;;5027519;28;20747;-39
2022/03/22 06:51:59;;;;;;;35.03;20.80;;;;;;;;;;5030474;28;20427;-39
2022/03/22 06:54:27;;;;;;;36.47;21.27;;;;;;;;;;5013372;28;20893;-39
2022/03/22 06:56:53;;;;;;;34.90;20.67;;;;;;;;;;5033917;28;20426;-39
2022/03/22 06:59:20;;;;;;;35.00;20.33;;;;;;;;;;5026895;28;20558;-39
2022/03/22 07:01:46;;;;;;;34.50;21.00;;;;;;;;;;5026989;28;21121;-39
2022/03/22 07:04:12;;;;;;;33.90;20.53;;;;;;;;;;5025074;28;20941;-39
2022/03/22 07:06:38;;;;;;;41.33;21.63;;;;;;;;;;5027929;28;20418;-39
2022/03/22 07:09:04;;;;;;;36.90;20.33;;;;;;;;;;5023539;28;20425;-39
2022/03/22 07:14:15;;;;;;;36.73;20.57;;;;;;;;;;5028084;28;20483;-39
2022/03/22 07:16:41;;;;;;;44.23;20.97;;;;;;;;;;5025583;28;21283;-39
2022/03/22 07:19:07;;;;;;;40.27;22.23;;;;;;;;;;5024255;28;20821;-39
2022/03/22 07:21:33;;;;;;;38.07;21.47;;;;;;;;;;5027365;28;20766;-38
2022/03/22 07:23:59;;;;;;;37.13;22.17;;;;;;;;;;5026075;28;20421;-40
2022/03/22 07:26:25;;;;;;;37.70;21.70;;;;;;;;;;5022242;28;21200;-40
2022/03/22 07:28:51;;;;;;;34.40;21.43;;;;;;;;;;5021870;28;21263;-39
2022/03/22 07:31:17;;;;;;;40.13;20.13;;;;;;;;;;5023329;28;20980;-39
2022/03/22 07:33:43;;;;;;;36.47;22.03;;;;;;;;;;5024266;28;21024;-39
2022/03/22 07:36:12;;;;;;;38.03;21.37;;;;;;;;;;5021702;28;20612;-39
2022/03/22 07:38:38;;;;;;;34.03;21.10;;;;;;;;;;5020679;28;20450;-39
2022/03/22 07:41:07;;;;;;;34.00;20.27;;;;;;;;;;5027317;28;20452;-38
2022/03/22 07:43:33;;;;;;;36.87;21.50;;;;;;;;;;5027497;28;20432;-40
2022/03/22 07:45:59;;;;;;;35.17;21.17;;;;;;;;;;5019069;28;20513;-39
2022/03/22 07:48:25;;;;;;;35.20;21.20;;;;;;;;;;5020463;28;20552;-39
2022/03/22 07:53:36;;;;;;;37.60;23.00;;;;;;;;;;5026107;28;20611;-40
2022/03/22 07:56:03;;;;;;;38.80;22.13;;;;;;;;;;5023750;28;20432;-40
2022/03/22 07:58:29;;;;;;;32.80;21.07;;;;;;;;;;5024407;28;20517;-40
2022/03/22 08:00:55;;;;;;;38.43;23.07;;;;;;;;;;5026532;28;20491;-40
2022/03/22 08:03:21;;;;;;;35.87;22.03;;;;;;;;;;5006588;28;20577;-40
2022/03/22 08:05:48;;;;;;;36.73;22.30;;;;;;;;;;5023799;28;20468;-40
2022/03/22 08:08:15;;;;;;;37.63;21.67;;;;;;;;;;5021034;28;20980;-40
2022/03/22 08:10:43;;;;;;;36.10;22.30;;;;;;;;;;5023778;28;20428;-39
2022/03/22 08:13:09;;;;;;;39.00;22.37;;;;;;;;;;5017372;28;21154;-39
2022/03/22 08:15:35;;;;;;;40.63;21.97;;;;;;;;;;5009135;28;21296;-39
2022/03/22 08:18:01;;;;;;;35.03;22.17;;;;;;;;;;5015210;28;20475;-40
2022/03/22 08:20:28;;;;;;;36.33;22.30;;;;;;;;;;5020294;28;20869;-40
2022/03/22 08:23:03;;;;;;;37.67;23.87;;;;;;;;;;5008685;28;20437;-38
2022/03/22 08:25:36;;;;;;;37.53;23.30;;;;;;;;;;5008193;28;20449;-40
2022/03/22 08:28:03;;;;;;;36.50;22.30;;;;;;;;;;4995655;28;20734;-39
2022/03/22 08:30:30;;;;;;;35.27;22.43;;;;;;;;;;4994371;28;20845;-39
2022/03/22 08:32:58;;;;;;;36.47;22.53;;;;;;;;;;4990967;28;20921;-39
2022/03/22 08:35:24;;;;;;;33.13;21.40;;;;;;;;;;5013064;28;20477;-38
2022/03/22 08:37:51;;;;;;;40.43;23.90;;;;;;;;;;4997875;28;20563;-39
2022/03/22 08:40:17;;;;;;;34.27;22.63;;;;;;;;;;5000362;28;20805;-39
2022/03/22 08:42:43;;;;;;;32.10;21.97;;;;;;;;;;4994036;28;20800;-38
2022/03/22 08:45:11;;;;;;;37.53;22.47;;;;;;;;;;5003602;28;20213;-39
2022/03/22 08:47:38;;;;;;;32.47;22.20;;;;;;;;;;4970213;28;20233;-39
2022/03/22 08:50:05;;;;;;;37.43;21.90;;;;;;;;;;5026613;28;20578;-39
2022/03/22 08:52:32;;;;;;;30.13;21.77;;;;;;;;;;5026018;28;21106;-41
2022/03/22 08:54:58;;;;;;;31.40;21.50;;;;;;;;;;4997475;28;20361;-39
2022/03/22 08:57:24;;;;;;;27.90;19.60;;;;;;;;;;4999486;28;20208;-39
2022/03/22 08:59:53;;;;;;;30.33;21.43;;;;;;;;;;4983349;28;20200;-39
2022/03/22 09:02:19;;;;;;;29.77;21.10;;;;;;;;;;4991464;28;20212;-39
2022/03/22 09:07:30;;;;;;;29.23;20.97;;;;;;;;;;4998974;28;20588;-39
2022/03/22 09:09:56;;;;;;;30.03;20.30;;;;;;;;;;4998062;28;20184;-40
2022/03/22 09:12:22;;;;;;;27.10;18.90;;;;;;;;;;4990145;28;20233;-40
2022/03/22 09:14:51;;;;;;;28.87;19.43;;;;;;;;;;4999574;28;20494;-40
2022/03/22 09:17:17;;;;;;;25.40;18.60;;;;;;;;;;5006854;28;20244;-39
2022/03/22 09:19:43;;;;;;;25.50;17.57;;;;;;;;;;5004103;28;20192;-40
2022/03/22 09:22:10;;;;;;;24.93;18.37;;;;;;;;;;5006221;28;20261;-40
2022/03/22 09:24:36;;;;;;;27.33;18.33;;;;;;;;;;4999673;28;20849;-40
2022/03/22 09:27:02;;;;;;;25.43;18.03;;;;;;;;;;4999795;28;20285;-39
2022/03/22 09:29:28;;;;;;;25.53;18.17;;;;;;;;;;5003344;28;20548;-40
2022/03/22 09:31:55;;;;;;;25.57;18.47;;;;;;;;;;5002324;28;20173;-40
2022/03/22 09:34:22;;;;;;;24.13;18.23;;;;;;;;;;4982759;28;20338;-39
2022/03/22 09:36:48;;;;;;;25.67;18.53;;;;;;;;;;5000068;28;20579;-40
2022/03/22 09:39:14;;;;;;;30.53;19.53;;;;;;;;;;5005800;28;20192;-40
2022/03/22 09:41:41;;;;;;;26.87;18.50;;;;;;;;;;5011567;28;20620;-40
2022/03/22 09:44:09;;;;;;;23.17;18.33;;;;;;;;;;5004700;28;20207;-39
2022/03/22 09:46:36;;;;;;;24.67;18.43;;;;;;;;;;5004518;28;21512;-39
2022/03/22 09:49:02;;;;;;;29.70;18.97;;;;;;;;;;4980797;28;21047;-39
2022/03/22 09:51:47;;;;;;;26.00;17.73;;;;;;;;;;5021117;28;21252;-39
2022/03/22 09:54:14;;;;;;;26.13;17.50;;;;;;;;;;5026341;28;20771;-39
2022/03/22 09:56:40;;;;;;;30.07;18.27;;;;;;;;;;5033360;28;20337;-39
2022/03/22 09:59:07;;;;;;;20.53;13.23;;;;;;;;;;5028697;28;20195;-39
2022/03/22 10:01:33;;;;;;;20.10;14.37;;;;;;;;;;5028874;28;20679;-39
2022/03/22 10:04:04;;;;;;;22.37;14.17;;;;;;;;;;5032280;28;20317;-38
2022/03/22 10:06:30;;;;;;;25.10;15.97;;;;;;;;;;5037569;28;20487;-40
2022/03/22 10:08:56;;;;;;;20.40;14.00;;;;;;;;;;5030925;28;20183;-39
2022/03/22 10:11:23;;;;;;;18.30;12.30;;;;;;;;;;4991917;28;20809;-38
2022/03/22 10:13:53;;;;;;;16.07;11.97;;;;;;;;;;5030241;28;20753;-39
2022/03/22 10:16:19;;;;;;;16.03;11.83;;;;;;;;;;5035287;28;20163;-38
2022/03/22 10:18:46;;;;;;;17.40;11.70;;;;;;;;;;5021368;28;20272;-39
2022/03/22 10:21:12;;;;;;;17.63;12.33;;;;;;;;;;5014170;28;21123;-39
2022/03/22 10:23:49;;;;;;;17.37;11.83;;;;;;;;;;5023376;28;20182;-38
2022/03/22 10:26:15;;;;;;;19.47;12.47;;;;;;;;;;5007914;28;21081;-40
2022/03/22 10:28:50;;;;;;;18.90;12.87;;;;;;;;;;5006960;28;20183;-39
2022/03/22 10:31:17;;;;;;;17.30;12.17;;;;;;;;;;5020494;28;20191;-39
2022/03/22 10:33:50;;;;;;;17.53;11.77;;;;;;;;;;5015714;28;20889;-40
2022/03/22 10:36:21;;;;;;;17.33;11.47;;;;;;;;;;5026424;28;20199;-39
2022/03/22 10:39:00;;;;;;;15.37;10.93;;;;;;;;;;5009089;28;20725;-39
2022/03/22 10:41:27;;;;;;;17.33;11.33;;;;;;;;;;5025673;28;20188;-39
2022/03/22 10:44:03;;;;;;;14.77;11.40;;;;;;;;;;5024271;28;20550;-39
2022/03/22 10:46:29;;;;;;;14.70;10.87;;;;;;;;;;4997349;28;20176;-39
2022/03/22 10:49:04;;;;;;;17.03;10.97;;;;;;;;;;5030393;28;20206;-38
2022/03/22 10:51:37;;;;;;;15.37;11.80;;;;;;;;;;5027433;28;20177;-38
2022/03/22 10:54:03;;;;;;;13.53;9.80;;;;;;;;;;5008528;28;21014;-38
2022/03/22 10:56:30;;;;;;;14.83;11.00;;;;;;;;;;4988850;28;20179;-38
2022/03/22 10:58:59;;;;;;;15.57;10.87;;;;;;;;;;5009028;28;20196;-39
2022/03/22 11:01:25;;;;;;;14.20;10.77;;;;;;;;;;5026448;28;20262;-38
2022/03/22 11:03:56;;;;;;;17.57;10.47;;;;;;;;;;5030598;28;20179;-38
2022/03/22 11:06:23;;;;;;;17.37;11.17;;;;;;;;;;5032222;28;20951;-38
2022/03/22 11:08:49;;;;;;;14.83;11.03;;;;;;;;;;5012844;28;20298;-38
2022/03/22 11:11:16;;;;;;;16.30;11.60;;;;;;;;;;5028470;28;20290;-38
2022/03/22 11:13:42;;;;;;;15.43;10.90;;;;;;;;;;5014906;28;20186;-38
2022/03/22 11:16:10;;;;;;;18.10;11.60;;;;;;;;;;5033604;28;20938;-38
2022/03/22 11:18:37;;;;;;;17.27;11.67;;;;;;;;;;5028771;28;20227;-38
2022/03/22 11:21:04;;;;;;;15.30;10.47;;;;;;;;;;5007085;28;20183;-38
2022/03/22 11:23:31;;;;;;;16.27;10.80;;;;;;;;;;5025897;28;20808;-38
2022/03/22 11:26:08;;;;;;;14.70;10.30;;;;;;;;;;5023634;28;20854;-38
2022/03/22 11:28:35;;;;;;;15.07;10.77;;;;;;;;;;5026433;28;20171;-38
2022/03/22 11:31:02;;;;;;;14.87;11.27;;;;;;;;;;5020732;28;20176;-38
2022/03/22 11:36:19;;;;;;;13.20;10.43;;;;;;;;;;5018340;28;20198;-38
2022/03/22 11:38:49;;;;;;;17.23;11.47;;;;;;;;;;5019763;28;20207;-38
2022/03/22 11:44:10;;;;;;;14.37;11.20;;;;;;;;;;5022892;28;20225;-38
2022/03/22 11:46:37;;;;;;;15.17;10.73;;;;;;;;;;5004710;28;20174;-39
2022/03/22 11:49:20;;;;;;;17.27;10.93;;;;;;;;;;5023385;28;20194;-38
2022/03/22 11:51:50;;;;;;;17.10;11.23;;;;;;;;;;5007300;28;21447;-36
2022/03/22 11:54:17;;;;;;;13.33;10.33;;;;;;;;;;5010251;28;21051;-38
2022/03/22 11:57:01;;;;;;;16.33;10.30;;;;;;;;;;5012187;28;20180;-37
2022/03/22 11:59:28;;;;;;;17.57;10.90;;;;;;;;;;5004525;28;20210;-38
2022/03/22 12:02:02;;;;;;;12.53;10.10;;;;;;;;;;5030491;28;20377;-38
2022/03/22 12:04:34;;;;;;;14.70;10.20;;;;;;;;;;5025728;28;20179;-37
2022/03/22 12:07:01;;;;;;;15.93;10.83;;;;;;;;;;5026750;28;20187;-38
2022/03/22 12:09:29;;;;;;;14.90;11.17;;;;;;;;;;5036082;22;20598;-90
2022/03/22 12:11:56;;;;;;;16.93;10.63;;;;;;;;;;5032788;28;20267;-90
2022/03/22 12:14:26;;;;;;;14.07;10.30;;;;;;;;;;5038400;28;20214;-87
2022/03/22 12:16:53;;;;;;;13.53;10.63;;;;;;;;;;5017683;28;20210;-87
2022/03/22 12:19:26;;;;;;;15.97;11.03;;;;;;;;;;5019133;28;20203;-87
2022/03/22 12:21:54;;;;;;;14.13;10.70;;;;;;;;;;5028672;28;20222;-87
2022/03/22 12:24:21;;;;;;;16.23;10.83;;;;;;;;;;5039838;28;20742;-87
2022/03/22 12:26:48;;;;;;;14.10;10.30;;;;;;;;;;5044336;28;20328;-87
2022/03/22 12:29:14;;;;;;;15.93;10.57;;;;;;;;;;5034534;28;20175;-88
2022/03/22 12:31:50;;;;;;;17.43;11.53;;;;;;;;;;5020824;22;20220;-36
2022/03/22 12:34:17;;;;;;;14.37;10.87;;;;;;;;;;5009853;28;20254;-36
2022/03/22 12:36:43;;;;;;;14.60;11.10;;;;;;;;;;4999483;28;21084;-36
2022/03/22 12:39:09;;;;;;;17.17;11.63;;;;;;;;;;5000909;28;20200;-36
2022/03/22 12:41:36;;;;;;;16.67;11.30;;;;;;;;;;5005120;28;21015;-36
2022/03/22 12:44:02;;;;;;;14.00;10.83;;;;;;;;;;4999155;28;20173;-36
2022/03/22 12:46:28;;;;;;;17.33;11.33;;;;;;;;;;4998256;28;20260;-36
2022/03/22 12:48:55;;;;;;;16.97;11.00;;;;;;;;;;5000205;28;20718;-36
2022/03/22 12:51:25;;;;;;;17.33;12.27;;;;;;;;;;4991497;28;20215;-36
2022/03/22 12:53:51;;;;;;;16.27;11.47;;;;;;;;;;5002242;28;20435;-36
2022/03/22 12:56:18;;;;;;;14.87;11.90;;;;;;;;;;5007126;28;20558;-36
2022/03/22 12:58:44;;;;;;;17.30;12.83;;;;;;;;;;4989239;28;20191;-36
2022/03/22 13:01:10;;;;;;;16.37;11.47;;;;;;;;;;5000917;28;20833;-36
2022/03/22 13:03:38;;;;;;;16.00;11.43;;;;;;;;;;5003550;28;20217;-37
2022/03/22 13:06:06;;;;;;;15.30;11.83;;;;;;;;;;5005485;28;20176;-36
2022/03/22 13:11:28;;;;;;;15.13;11.90;;;;;;;;;;5005581;28;20283;-36
2022/03/22 13:16:40;;;;;;;16.93;11.87;;;;;;;;;;4956439;28;20717;-36
2022/03/22 13:19:07;;;;;;;18.53;11.57;;;;;;;;;;4995239;28;20488;-36
2022/03/22 13:21:34;;;;;;;16.00;11.47;;;;;;;;;;5002793;28;20179;-36
2022/03/22 13:24:08;;;;;;;19.27;11.80;;;;;;;;;;5007008;28;21150;-36
2022/03/22 13:26:35;;;;;;;17.50;11.67;;;;;;;;;;5004502;28;20184;-36
2022/03/22 13:29:21;;;;;;;16.30;11.67;;;;;;;;;;5003566;28;20164;-36
2022/03/22 13:31:55;;;;;;;14.90;11.00;;;;;;;;;;5007279;28;21057;-36
2022/03/22 13:34:22;;;;;;;16.10;10.73;;;;;;;;;;5007749;28;20174;-37
2022/03/22 13:36:48;;;;;;;14.10;10.60;;;;;;;;;;5002883;28;20416;-36
2022/03/22 13:39:23;;;;;;;13.73;11.27;;;;;;;;;;5004289;28;20992;-36
2022/03/22 13:41:49;;;;;;;14.30;10.70;;;;;;;;;;5008701;28;20429;-37
2022/03/22 13:44:25;;;;;;;15.53;10.77;;;;;;;;;;5003773;28;20187;-36
2022/03/22 13:46:52;;;;;;;14.10;10.90;;;;;;;;;;5004981;28;21152;-37
2022/03/22 13:49:18;;;;;;;13.87;11.03;;;;;;;;;;5009865;28;20208;-36
2022/03/22 13:51:45;;;;;;;17.53;11.63;;;;;;;;;;5006611;28;20198;-37
2022/03/22 13:54:14;;;;;;;20.13;11.83;;;;;;;;;;5003244;28;20227;-36
2022/03/22 13:56:40;;;;;;;15.80;11.27;;;;;;;;;;5006934;28;20247;-36
2022/03/22 13:59:10;;;;;;;16.80;12.03;;;;;;;;;;5009100;28;20277;-37
2022/03/22 14:01:37;;;;;;;15.33;11.63;;;;;;;;;;5001300;28;21074;-36
2022/03/22 14:04:03;;;;;;;16.03;11.33;;;;;;;;;;4997530;28;20293;-37
2022/03/22 14:06:30;;;;;;;14.77;11.83;;;;;;;;;;5004424;28;20697;-36
2022/03/22 14:08:56;;;;;;;16.00;11.43;;;;;;;;;;5000503;28;20653;-37
2022/03/22 14:11:23;;;;;;;17.83;11.97;;;;;;;;;;5004037;28;20176;-36
2022/03/22 14:13:49;;;;;;;15.03;11.97;;;;;;;;;;5001567;28;20410;-36
2022/03/22 14:16:15;;;;;;;18.47;12.23;;;;;;;;;;5003687;28;20172;-36
2022/03/22 14:18:41;;;;;;;15.43;11.20;;;;;;;;;;5002101;28;20641;-36
2022/03/22 14:21:07;;;;;;;14.60;11.60;;;;;;;;;;5004638;28;20173;-36
2022/03/22 14:23:33;;;;;;;15.33;10.93;;;;;;;;;;5004558;28;20176;-36
2022/03/22 14:25:59;;;;;;;16.80;12.33;;;;;;;;;;5002468;28;20168;-36
2022/03/22 14:28:26;;;;;;;23.80;12.30;;;;;;;;;;5004948;28;20337;-36
2022/03/22 14:30:53;;;;;;;18.07;12.17;;;;;;;;;;5006326;28;20636;-36
2022/03/22 14:33:20;;;;;;;16.83;12.27;;;;;;;;;;5004511;28;20709;-36
2022/03/22 14:35:50;;;;;;;15.33;12.40;;;;;;;;;;5000861;28;20573;-36
2022/03/22 14:38:27;;;;;;;23.87;13.10;;;;;;;;;;5003966;28;20177;-36
2022/03/22 14:40:54;;;;;;;16.97;12.70;;;;;;;;;;5003903;28;20164;-36
2022/03/22 14:43:21;;;;;;;17.90;13.40;;;;;;;;;;5006312;28;20279;-36
2022/03/22 14:45:50;;;;;;;16.83;12.63;;;;;;;;;;4987941;28;21221;-37
2022/03/22 14:48:18;;;;;;;15.47;12.20;;;;;;;;;;5006840;28;20259;-36
2022/03/22 14:50:45;;;;;;;19.77;13.13;;;;;;;;;;5004128;28;20168;-36
2022/03/22 14:58:53;;;;;;;20.93;13.47;;;;;;;;;;5003298;28;20277;-35
2022/03/22 15:01:20;;;;;;;17.13;13.20;;;;;;;;;;4984421;28;20199;-35
2022/03/22 15:03:47;;;;;;;19.20;13.03;;;;;;;;;;5004742;28;20176;-35